Airport ID:K3K8
Update Time (UTC):22/10/2021 02:46
Wind Speed (Knots):7
Wind Direction (Magnetic):110
Temperature (°C):10
Dew Point (°C):5
Humidity (%):74
Altimeter (inHg):30.19
Density Altitude (Feet):
Visibility:10+
Clouds (Hundreds of feet):CLR
Present Weather:
METAR:METAR K3K8 220245Z AUTO 11007KT 10SM CLR 10/05 A3019 RMK AO2

The data displayed is for advisory purposes only and is not to be used for flight planning or operations.